»·PEaware :: WAT202 KBUR-KSJC

WAT202 :: KBUR-KSJC

FLIGHT INFORMATION

Flight Status: Arrived
Operator:
Walker Air Transport
More flights by this operator :: More flights under this callsign
Pilot: Nick L. (7253)
Aircraft: BOEING 727-200
(B722)
More flights by this aircraft type
Origin: KBUR Bob Hope-Burbank
United States
Destination: KSJC Mineta San Jose Intl
United States
More flights between these airports :: More routes between these airports
Route: VNY3 AVE ROBIE5
File this flight plan on PilotEdge
Remarks: RMK / SIMBRIEF
Altitude:
(Current/Filed)
28,000ft
Speed:
(Current/Filed)
468kts
Departed: 04-Mar-21 07:25 PM
Arrived: 04-Mar-21 08:14 PM
Distance/Time
Traveled:
258nm/0:48
Distance/Time
To Go:
Arrived

Flight Plot

Page will automatically refresh every two minutes.

Flight plan parsing failed; only flown route is shown


Map Options




Map Legend


Flown Route
Filed Route
Departure Airport
Arrival Airport
Navaid (VOR, NDB)
Fix

Horizontal Profiles

Position Reports

Time Latitude Longitude Heading Altitude Ground
Speed
04-Mar-21 18:59 34.196874 -118.351498 180 789ft 0kts
04-Mar-21 19:00 34.196874 -118.351498 180 789ft 0kts
04-Mar-21 19:01 34.196874 -118.351498 180 789ft 0kts
04-Mar-21 19:02 34.196874 -118.351498 180 789ft 0kts
04-Mar-21 19:03 34.196874 -118.351498 180 789ft 0kts
04-Mar-21 19:04 34.196874 -118.351498 180 789ft 0kts
04-Mar-21 19:05 34.196874 -118.351498 180 789ft 0kts
04-Mar-21 19:06 34.196874 -118.351498 180 789ft 0kts
04-Mar-21 19:07 34.196874 -118.351498 180 789ft 0kts
04-Mar-21 19:08 34.196874 -118.351498 180 789ft 0kts
04-Mar-21 19:09 34.196874 -118.351498 180 789ft 0kts
04-Mar-21 19:10 34.196874 -118.351498 180 789ft 0kts
04-Mar-21 19:11 34.196874 -118.351498 180 789ft 0kts
04-Mar-21 19:12 34.196874 -118.351498 180 789ft 0kts
04-Mar-21 19:13 34.196874 -118.351498 180 789ft 0kts
04-Mar-21 19:14 34.197164 -118.351066 276 789ft 2kts
04-Mar-21 19:15 34.197157 -118.350970 272 789ft 0kts
04-Mar-21 19:16 34.197157 -118.350970 272 789ft 0kts
04-Mar-21 19:17 34.197157 -118.350970 272 789ft 0kts
04-Mar-21 19:18 34.197157 -118.350970 272 789ft 0kts
04-Mar-21 19:19 34.197166 -118.351474 271 789ft 9kts
04-Mar-21 19:20 34.197518 -118.354968 339 789ft 12kts
04-Mar-21 19:21 34.201850 -118.356206 347 789ft 17kts
04-Mar-21 19:22 34.207065 -118.357666 346 789ft 22kts
04-Mar-21 19:23 34.211345 -118.360170 171 789ft 16kts
04-Mar-21 19:24 34.181936 -118.353009 174 1618ft 146kts
04-Mar-21 19:25 34.143327 -118.387067 226 3413ft 214kts
04-Mar-21 19:26 34.096025 -118.445885 226 5750ft 260kts
04-Mar-21 19:27 34.064023 -118.523332 294 8304ft 279kts
04-Mar-21 19:28 34.133419 -118.538601 22 10719ft 290kts
04-Mar-21 19:29 34.211468 -118.503895 353 12945ft 300kts
04-Mar-21 19:30 34.261127 -118.578811 310 14809ft 306kts
04-Mar-21 19:31 34.337430 -118.634676 335 16271ft 332kts
04-Mar-21 19:32 34.430168 -118.680725 337 17571ft 361kts
04-Mar-21 19:33 34.527204 -118.724872 336 19352ft 368kts
04-Mar-21 19:34 34.625763 -118.773047 335 20881ft 376kts
04-Mar-21 19:35 34.725626 -118.822971 335 22244ft 384kts
04-Mar-21 19:36 34.824047 -118.882736 322 23380ft 388kts
04-Mar-21 19:37 34.918913 -118.956627 324 24422ft 397kts
04-Mar-21 19:38 35.013986 -119.033491 321 25343ft 405kts
04-Mar-21 19:39 35.109785 -119.113041 321 26255ft 410kts
04-Mar-21 19:40 35.207060 -119.193482 321 27072ft 414kts
04-Mar-21 19:41 35.302214 -119.272971 321 27809ft 418kts
04-Mar-21 19:42 35.400844 -119.355734 321 28262ft 428kts
04-Mar-21 19:43 35.503591 -119.442399 321 28267ft 448kts
04-Mar-21 19:44 35.561498 -119.574276 284 28268ft 440kts
04-Mar-21 19:45 35.600479 -119.723754 286 28268ft 456kts
04-Mar-21 19:46 35.634886 -119.878278 278 28270ft 458kts
04-Mar-21 19:47 35.667448 -120.035276 284 28273ft 463kts
04-Mar-21 19:48 35.714708 -120.187600 288 28273ft 465kts
04-Mar-21 19:49 35.764272 -120.339411 288 28274ft 467kts
04-Mar-21 19:50 35.813844 -120.491861 288 28273ft 468kts
04-Mar-21 19:51 35.863146 -120.644730 288 28274ft 469kts
04-Mar-21 19:52 35.912113 -120.799228 288 28273ft 469kts
04-Mar-21 19:53 35.963163 -120.951416 298 28268ft 468kts
04-Mar-21 19:54 36.059907 -121.066005 312 28265ft 457kts
04-Mar-21 19:55 36.151266 -121.170881 318 26648ft 433kts
04-Mar-21 19:56 36.250136 -121.258394 329 24602ft 420kts
04-Mar-21 19:57 36.346875 -121.326046 329 21817ft 382kts
04-Mar-21 19:58 36.436707 -121.399731 323 20010ft 357kts
04-Mar-21 19:59 36.517726 -121.475017 324 20000ft 357kts
04-Mar-21 20:00 36.615176 -121.503784 354 18979ft 350kts
04-Mar-21 20:01 36.714291 -121.516764 354 17258ft 345kts
04-Mar-21 20:02 36.810752 -121.529307 354 15702ft 336kts
04-Mar-21 20:03 36.905042 -121.541533 354 14264ft 322kts
04-Mar-21 20:04 36.991998 -121.552794 354 12479ft 298kts
04-Mar-21 20:05 37.065881 -121.596473 323 9994ft 287kts
04-Mar-21 20:06 37.129347 -121.657124 317 6943ft 277kts
04-Mar-21 20:07 37.176880 -121.725322 316 5043ft 237kts
04-Mar-21 20:08 37.223772 -121.778663 318 3543ft 212kts
04-Mar-21 20:09 37.267295 -121.825652 319 2383ft 190kts
04-Mar-21 20:10 37.303877 -121.865459 319 1448ft 142kts
04-Mar-21 20:11 37.333887 -121.898320 318 670ft 138kts
04-Mar-21 20:12 37.362383 -121.929568 319 55ft 115kts
04-Mar-21 20:13 37.370978 -121.938585 42 55ft 6kts
04-Mar-21 20:14 37.371557 -121.937961 43 55ft 0kts
04-Mar-21 20:15 37.372273 -121.936904 50 55ft 11kts
04-Mar-21 20:16 37.371001 -121.933097 105 55ft 7kts

Navigation Log

Ident Type
Flight plan parsing failed, navigation log unavailable